JAL2655 RJCH-RJTT
Flight info
| Callsign | JAL2655 |
|---|---|
| Flight time | N/A |
| Altitude | 35000 |
| Route | UWE Y32 RUBIS Y10 GODIN |
| Aircraft | A359/H-SDE2E3GHIJ3J4J5LM1ORWXY/LB1D1 |
Departure
| Time | 2026-04-21 17:06 |
|---|---|
| Airport | Hakodate Airport (RJCH) |
Arrival
| Time | N/A |
|---|---|
| Airport | Tokyo Haneda International Airport (RJTT) |
| Time | Latitude | Longitude | Altitude | Speed | Heading |
|---|---|---|---|---|---|
| 2026-04-21 16:03 | 41.77506 | 140.81446 | 123 ft | 0 kts | 18° |
| 2026-04-21 16:55 | 41.77508 | 140.81447 | 119 ft | 4 kts | 18° |
| 2026-04-21 16:55 | 41.77491 | 140.81439 | 118 ft | 4 kts | 18° |
| 2026-04-21 16:55 | 41.77466 | 140.81428 | 119 ft | 4 kts | 20° |
| 2026-04-21 16:56 | 41.77442 | 140.81413 | 119 ft | 4 kts | 34° |
| 2026-04-21 16:56 | 41.77421 | 140.81390 | 118 ft | 4 kts | 49° |
| 2026-04-21 16:56 | 41.77411 | 140.81372 | 118 ft | 0 kts | 56° |
| 2026-04-21 16:56 | 41.77410 | 140.81371 | 118 ft | 0 kts | 56° |
| 2026-04-21 17:00 | 41.77412 | 140.81375 | 123 ft | 0 kts | 57° |
| 2026-04-21 17:01 | 41.77415 | 140.81391 | 124 ft | 6 kts | 79° |
| 2026-04-21 17:01 | 41.77406 | 140.81430 | 120 ft | 6 kts | 123° |
| 2026-04-21 17:02 | 41.77356 | 140.81532 | 126 ft | 15 kts | 122° |
| 2026-04-21 17:02 | 41.77318 | 140.81672 | 126 ft | 19 kts | 108° |
| 2026-04-21 17:02 | 41.77274 | 140.81855 | 127 ft | 22 kts | 108° |
| 2026-04-21 17:02 | 41.77223 | 140.82067 | 126 ft | 26 kts | 108° |
| 2026-04-21 17:03 | 41.77165 | 140.82302 | 136 ft | 27 kts | 108° |
| 2026-04-21 17:03 | 41.77106 | 140.82546 | 141 ft | 28 kts | 108° |
| 2026-04-21 17:03 | 41.77044 | 140.82799 | 145 ft | 30 kts | 108° |
| 2026-04-21 17:03 | 41.76979 | 140.83067 | 150 ft | 31 kts | 108° |
| 2026-04-21 17:04 | 41.76910 | 140.83351 | 152 ft | 32 kts | 108° |
| 2026-04-21 17:04 | 41.76845 | 140.83617 | 155 ft | 31 kts | 108° |
| 2026-04-21 17:04 | 41.76789 | 140.83846 | 165 ft | 19 kts | 108° |
| 2026-04-21 17:04 | 41.76714 | 140.83952 | 168 ft | 15 kts | 179° |
| 2026-04-21 17:05 | 41.76623 | 140.83901 | 166 ft | 8 kts | 230° |
| 2026-04-21 17:05 | 41.76628 | 140.83800 | 162 ft | 15 kts | 289° |
| 2026-04-21 17:05 | 41.76630 | 140.83790 | 162 ft | 0 kts | 289° |
| 2026-04-21 17:05 | 41.76651 | 140.83709 | 160 ft | 31 kts | 288° |
| 2026-04-21 17:06 | 41.76817 | 140.83028 | 147 ft | 119 kts | 287° |
| 2026-04-21 17:06 | 41.77143 | 140.81693 | 355 ft | 171 kts | 289° |
| 2026-04-21 17:06 | 41.77484 | 140.80113 | 1209 ft | 181 kts | 276° |
| 2026-04-21 17:06 | 41.77314 | 140.78437 | 2229 ft | 188 kts | 246° |
| 2026-04-21 17:07 | 41.76818 | 140.77485 | 2825 ft | 195 kts | 228° |
| 2026-04-21 17:07 | 41.75027 | 140.76475 | 3576 ft | 230 kts | 194° |
| 2026-04-21 17:07 | 41.73397 | 140.76130 | 4156 ft | 243 kts | 199° |
| 2026-04-21 17:07 | 41.71807 | 140.75330 | 4772 ft | 248 kts | 216° |
| 2026-04-21 17:08 | 41.70316 | 140.74122 | 5495 ft | 253 kts | 220° |
| 2026-04-21 17:08 | 41.68859 | 140.72781 | 6319 ft | 255 kts | 223° |
| 2026-04-21 17:08 | 41.67451 | 140.71354 | 7248 ft | 252 kts | 226° |
| 2026-04-21 17:08 | 41.66101 | 140.69885 | 8223 ft | 250 kts | 227° |
| 2026-04-21 17:09 | 41.63365 | 140.67054 | 10200 ft | 248 kts | 227° |
| 2026-04-21 17:09 | 41.61933 | 140.65667 | 10740 ft | 263 kts | 226° |
| 2026-04-21 17:09 | 41.60400 | 140.64170 | 11110 ft | 281 kts | 226° |
| 2026-04-21 17:10 | 41.58800 | 140.62581 | 11691 ft | 290 kts | 227° |
| 2026-04-21 17:10 | 41.57175 | 140.60950 | 12380 ft | 295 kts | 227° |
| 2026-04-21 17:10 | 41.55526 | 140.59282 | 13130 ft | 299 kts | 228° |
| 2026-04-21 17:10 | 41.53863 | 140.57590 | 13856 ft | 302 kts | 229° |
| 2026-04-21 17:11 | 41.52182 | 140.55874 | 14554 ft | 305 kts | 229° |
| 2026-04-21 17:11 | 41.50492 | 140.54148 | 15278 ft | 307 kts | 229° |
| 2026-04-21 17:11 | 41.48787 | 140.52404 | 16010 ft | 310 kts | 229° |
| 2026-04-21 17:11 | 41.47073 | 140.50652 | 16744 ft | 312 kts | 229° |
| 2026-04-21 17:12 | 41.45339 | 140.48877 | 17354 ft | 317 kts | 229° |
| 2026-04-21 17:12 | 41.43597 | 140.47090 | 17925 ft | 323 kts | 229° |
| 2026-04-21 17:12 | 41.41808 | 140.45263 | 18554 ft | 325 kts | 229° |
| 2026-04-21 17:12 | 41.40007 | 140.43430 | 19211 ft | 326 kts | 229° |
| 2026-04-21 17:13 | 41.38204 | 140.41594 | 19869 ft | 327 kts | 229° |
| 2026-04-21 17:13 | 41.36399 | 140.39755 | 20504 ft | 329 kts | 229° |
| 2026-04-21 17:13 | 41.34570 | 140.37892 | 21108 ft | 331 kts | 229° |
| 2026-04-21 17:13 | 41.32739 | 140.36029 | 21722 ft | 333 kts | 229° |
| 2026-04-21 17:14 | 41.30894 | 140.34152 | 22335 ft | 334 kts | 229° |
| 2026-04-21 17:14 | 41.29047 | 140.32274 | 22918 ft | 337 kts | 229° |
| 2026-04-21 17:14 | 41.27174 | 140.30371 | 23475 ft | 339 kts | 229° |
| 2026-04-21 17:14 | 41.25296 | 140.28466 | 23976 ft | 340 kts | 230° |
| 2026-04-21 17:15 | 41.23407 | 140.26550 | 24492 ft | 342 kts | 230° |
| 2026-04-21 17:15 | 41.21517 | 140.24636 | 24996 ft | 343 kts | 231° |
| 2026-04-21 17:15 | 41.19608 | 140.22702 | 25504 ft | 345 kts | 231° |
| 2026-04-21 17:15 | 41.17691 | 140.20773 | 26026 ft | 348 kts | 231° |
| 2026-04-21 17:16 | 41.15619 | 140.18984 | 26547 ft | 363 kts | 225° |
| 2026-04-21 17:16 | 41.13258 | 140.17579 | 27021 ft | 385 kts | 216° |
| 2026-04-21 17:16 | 41.10569 | 140.16706 | 27550 ft | 411 kts | 206° |
| 2026-04-21 17:16 | 41.07625 | 140.16463 | 28028 ft | 435 kts | 198° |
| 2026-04-21 17:17 | 41.04561 | 140.16513 | 28483 ft | 443 kts | 197° |
| 2026-04-21 17:17 | 41.01463 | 140.16599 | 28946 ft | 448 kts | 198° |
| 2026-04-21 17:17 | 40.98334 | 140.16674 | 29410 ft | 452 kts | 198° |
| 2026-04-21 17:17 | 40.95174 | 140.16738 | 29857 ft | 456 kts | 199° |
| 2026-04-21 17:18 | 40.91987 | 140.16794 | 30250 ft | 460 kts | 199° |
| 2026-04-21 17:18 | 40.88773 | 140.16846 | 30630 ft | 464 kts | 199° |
| 2026-04-21 17:18 | 40.85524 | 140.16898 | 30966 ft | 468 kts | 199° |
| 2026-04-21 17:18 | 40.82260 | 140.16948 | 31377 ft | 471 kts | 199° |
| 2026-04-21 17:19 | 40.78961 | 140.16997 | 31781 ft | 475 kts | 200° |
| 2026-04-21 17:19 | 40.75646 | 140.17045 | 32190 ft | 479 kts | 200° |
| 2026-04-21 17:19 | 40.72299 | 140.17094 | 32580 ft | 482 kts | 200° |
| 2026-04-21 17:19 | 40.68931 | 140.17142 | 32965 ft | 486 kts | 200° |
| 2026-04-21 17:20 | 40.65538 | 140.17191 | 33297 ft | 490 kts | 200° |
| 2026-04-21 17:20 | 40.62119 | 140.17244 | 33580 ft | 493 kts | 200° |
| 2026-04-21 17:20 | 40.58687 | 140.17296 | 34042 ft | 493 kts | 199° |
| 2026-04-21 17:20 | 40.55297 | 140.17350 | 34394 ft | 495 kts | 199° |
| 2026-04-21 17:21 | 40.51843 | 140.17398 | 34647 ft | 498 kts | 198° |
| 2026-04-21 17:21 | 40.48325 | 140.17441 | 34831 ft | 497 kts | 198° |
| 2026-04-21 17:21 | 40.44989 | 140.17511 | 34858 ft | 485 kts | 198° |
| 2026-04-21 17:21 | 40.41636 | 140.17578 | 34867 ft | 478 kts | 199° |
| 2026-04-21 17:22 | 40.35019 | 140.17664 | 34859 ft | 477 kts | 199° |
| 2026-04-21 17:22 | 40.28236 | 140.17722 | 34889 ft | 499 kts | 198° |
| 2026-04-21 17:23 | 40.24719 | 140.17762 | 34887 ft | 510 kts | 198° |
| 2026-04-21 17:23 | 40.21159 | 140.17818 | 34890 ft | 513 kts | 197° |
| 2026-04-21 17:23 | 40.14016 | 140.17941 | 34897 ft | 513 kts | 198° |
| 2026-04-21 17:24 | 40.06886 | 140.18056 | 34905 ft | 511 kts | 197° |
| 2026-04-21 17:24 | 39.99809 | 140.18165 | 34914 ft | 507 kts | 198° |
| 2026-04-21 17:25 | 39.93952 | 140.18246 | 34923 ft | 506 kts | 198° |
| 2026-04-21 17:25 | 39.86910 | 140.18345 | 34860 ft | 506 kts | 198° |
| 2026-04-21 17:26 | 39.79884 | 140.18445 | 34935 ft | 504 kts | 198° |
| 2026-04-21 17:26 | 39.72878 | 140.18543 | 34943 ft | 503 kts | 198° |
| 2026-04-21 17:27 | 39.65878 | 140.18638 | 34950 ft | 503 kts | 198° |
| 2026-04-21 17:27 | 39.58812 | 140.19029 | 34945 ft | 515 kts | 192° |
| 2026-04-21 17:28 | 39.51643 | 140.20005 | 34963 ft | 520 kts | 191° |
| 2026-04-21 17:28 | 39.44464 | 140.21099 | 34953 ft | 519 kts | 191° |
| 2026-04-21 17:29 | 39.37293 | 140.22133 | 34975 ft | 518 kts | 191° |
| 2026-04-21 17:29 | 39.30126 | 140.23145 | 34973 ft | 518 kts | 191° |
| 2026-04-21 17:30 | 39.22955 | 140.24150 | 34984 ft | 518 kts | 190° |
| 2026-04-21 17:30 | 39.15797 | 140.25156 | 34989 ft | 517 kts | 190° |
| 2026-04-21 17:31 | 39.08639 | 140.26158 | 34954 ft | 517 kts | 190° |
| 2026-04-21 17:31 | 39.01474 | 140.27172 | 35001 ft | 519 kts | 189° |
| 2026-04-21 17:32 | 38.94349 | 140.28158 | 35007 ft | 518 kts | 189° |
| 2026-04-21 17:32 | 38.87179 | 140.29140 | 34985 ft | 518 kts | 189° |
| 2026-04-21 17:33 | 38.80015 | 140.30133 | 35012 ft | 518 kts | 189° |
| 2026-04-21 17:33 | 38.72852 | 140.31123 | 35025 ft | 518 kts | 189° |
| 2026-04-21 17:34 | 38.65695 | 140.32111 | 35020 ft | 516 kts | 188° |
| 2026-04-21 17:34 | 38.58567 | 140.33093 | 35005 ft | 515 kts | 188° |
| 2026-04-21 17:35 | 38.51438 | 140.34070 | 35020 ft | 515 kts | 188° |
| 2026-04-21 17:35 | 38.44322 | 140.35047 | 35035 ft | 514 kts | 188° |
| 2026-04-21 17:36 | 38.37171 | 140.36623 | 35045 ft | 537 kts | 177° |
| 2026-04-21 17:36 | 38.30013 | 140.39530 | 35036 ft | 541 kts | 174° |
| 2026-04-21 17:37 | 38.22897 | 140.42667 | 35051 ft | 541 kts | 174° |
| 2026-04-21 17:37 | 38.15801 | 140.45814 | 35030 ft | 540 kts | 174° |
| 2026-04-21 17:38 | 38.08715 | 140.48915 | 35049 ft | 538 kts | 174° |
| 2026-04-21 17:38 | 38.01633 | 140.51972 | 35054 ft | 537 kts | 174° |
| 2026-04-21 17:39 | 37.94566 | 140.55021 | 35055 ft | 536 kts | 174° |
| 2026-04-21 17:39 | 37.87507 | 140.58067 | 35056 ft | 536 kts | 174° |
| 2026-04-21 17:40 | 37.80445 | 140.61087 | 35055 ft | 533 kts | 175° |
| 2026-04-21 17:40 | 37.76902 | 140.62158 | 35066 ft | 515 kts | 185° |
| 2026-04-21 17:40 | 37.73409 | 140.62514 | 35068 ft | 494 kts | 194° |
| 2026-04-21 17:41 | 37.68807 | 140.61873 | 35044 ft | 473 kts | 204° |
| 2026-04-21 17:41 | 37.62413 | 140.60147 | 35076 ft | 469 kts | 207° |
| 2026-04-21 17:42 | 37.56112 | 140.58253 | 35067 ft | 468 kts | 207° |